Time;durP1;ratioP1;P1;durP2;ratioP2;P2;SDS_P1;SDS_P2;PMS_P1;PMS_P2;Temp;Humidity;BMP_temperature;BMP_pressure;BME280_temperature;BME280_humidity;BME280_pressure;Samples;Min_cycle;Max_cycle;Signal;HPM_P1;HPM_P2
2022/03/06 00:01:05;;;;;;;32.13;16.10;;;1.70;28.50;;;;;;4992887;28;20828;-75
2022/03/06 00:03:30;;;;;;;35.88;16.92;;;1.60;29.00;;;;;;4993423;28;20406;-76
2022/03/06 00:05:56;;;;;;;33.05;17.08;;;1.60;33.00;;;;;;4995865;28;20914;-75
2022/03/06 00:08:22;;;;;;;36.05;16.38;;;1.90;33.70;;;;;;4993423;28;20414;-74
2022/03/06 00:10:48;;;;;;;29.98;16.90;;;1.90;33.40;;;;;;4992552;28;20417;-75
2022/03/06 00:13:14;;;;;;;32.65;17.60;;;1.80;33.60;;;;;;4993535;28;20566;-75
2022/03/06 00:15:42;;;;;;;33.60;16.95;;;1.80;32.90;;;;;;4992941;28;20497;-74
2022/03/06 00:18:07;;;;;;;31.02;16.50;;;1.60;33.10;;;;;;4992490;28;20406;-74
2022/03/06 00:20:33;;;;;;;32.60;17.60;;;1.50;34.70;;;;;;4992933;28;20402;-73
2022/03/06 00:22:59;;;;;;;32.83;17.40;;;1.40;34.10;;;;;;4993197;28;20413;-75
2022/03/06 00:25:25;;;;;;;32.63;17.67;;;1.30;35.20;;;;;;4993190;28;20489;-75
2022/03/06 00:27:50;;;;;;;37.25;16.67;;;1.40;35.90;;;;;;4993565;28;20415;-75
2022/03/06 00:30:17;;;;;;;31.52;16.92;;;1.40;35.00;;;;;;4993057;28;20513;-76
2022/03/06 00:32:45;;;;;;;41.60;18.00;;;1.30;34.20;;;;;;4992447;28;20406;-77
2022/03/06 00:35:10;;;;;;;33.13;17.05;;;1.30;35.60;;;;;;4991785;28;20418;-76
2022/03/06 00:37:36;;;;;;;31.48;16.52;;;1.70;33.60;;;;;;4992675;28;20497;-75
2022/03/06 00:40:04;;;;;;;34.28;16.80;;;2.00;32.50;;;;;;4993421;28;20405;-77
2022/03/06 00:42:30;;;;;;;37.90;16.33;;;2.20;31.40;;;;;;4993596;28;20398;-77
2022/03/06 00:44:56;;;;;;;33.75;17.42;;;2.30;30.80;;;;;;4993725;28;20402;-77
2022/03/06 00:47:21;;;;;;;34.85;18.00;;;2.30;29.80;;;;;;4996333;28;20450;-77
2022/03/06 00:49:47;;;;;;;33.35;17.77;;;2.40;29.30;;;;;;4996688;28;20784;-76
2022/03/06 00:52:12;;;;;;;34.90;17.63;;;2.40;29.80;;;;;;4995899;28;20410;-76
2022/03/06 00:54:38;;;;;;;35.17;17.13;;;2.40;28.90;;;;;;4994980;28;20407;-76
2022/03/06 00:57:04;;;;;;;34.38;18.10;;;2.30;28.60;;;;;;4994711;28;20853;-76
2022/03/06 00:59:34;;;;;;;40.17;19.27;;;2.20;28.40;;;;;;4994243;28;20919;-77
2022/03/06 01:02:01;;;;;;;34.30;18.50;;;2.30;28.40;;;;;;4994059;28;20849;-77
2022/03/06 01:04:27;;;;;;;37.13;18.98;;;2.30;28.90;;;;;;4995948;28;20414;-77
2022/03/06 01:06:53;;;;;;;40.47;19.53;;;2.10;30.00;;;;;;4999305;28;20406;-77
2022/03/06 01:09:18;;;;;;;37.25;20.40;;;2.00;31.10;;;;;;5000317;28;20430;-77
2022/03/06 01:11:44;;;;;;;37.67;19.45;;;1.80;32.40;;;;;;4998186;28;20421;-77
2022/03/06 01:14:09;;;;;;;33.60;18.17;;;1.70;33.50;;;;;;5000197;28;20414;-75
2022/03/06 01:16:35;;;;;;;35.93;18.57;;;1.90;32.90;;;;;;4998787;28;20426;-77
2022/03/06 01:19:01;;;;;;;36.88;18.98;;;2.00;33.10;;;;;;4995874;28;20876;-77
2022/03/06 01:21:26;;;;;;;32.45;18.05;;;1.90;32.90;;;;;;4995056;28;20414;-75
2022/03/06 01:23:52;;;;;;;38.77;19.27;;;1.70;34.10;;;;;;4992135;28;20954;-76
2022/03/06 01:26:18;;;;;;;40.23;18.20;;;1.70;35.00;;;;;;4992151;28;20411;-76
2022/03/06 01:28:44;;;;;;;33.78;18.40;;;1.70;35.90;;;;;;4992260;28;20505;-76
2022/03/06 01:31:09;;;;;;;37.43;17.73;;;1.60;36.70;;;;;;4992247;28;20430;-76
2022/03/06 01:33:35;;;;;;;40.97;18.90;;;1.40;36.80;;;;;;4992416;28;20425;-77
2022/03/06 01:36:00;;;;;;;36.83;19.27;;;1.40;36.80;;;;;;4992316;28;20509;-76
2022/03/06 01:38:26;;;;;;;37.30;18.63;;;1.40;37.40;;;;;;4993114;28;21171;-76
2022/03/06 01:40:52;;;;;;;34.93;18.73;;;1.10;38.10;;;;;;4991738;28;20406;-76
2022/03/06 01:43:17;;;;;;;35.45;17.92;;;1.20;36.50;;;;;;4991007;28;20433;-76
2022/03/06 01:45:43;;;;;;;32.80;17.27;;;1.20;36.50;;;;;;4994993;28;20407;-77
2022/03/06 01:48:09;;;;;;;37.70;18.50;;;1.20;36.50;;;;;;4992197;28;20854;-76
2022/03/06 01:50:36;;;;;;;34.10;17.45;;;1.20;36.90;;;;;;4993195;28;20484;-75
2022/03/06 01:53:06;;;;;;;35.97;17.73;;;1.30;35.60;;;;;;4998380;28;20411;-75
2022/03/06 01:55:33;;;;;;;33.70;17.63;;;1.50;34.70;;;;;;4995062;28;20493;-75
2022/03/06 01:58:01;;;;;;;32.45;17.35;;;1.60;33.60;;;;;;4995875;28;20742;-75
2022/03/06 02:00:33;;;;;;;35.60;18.08;;;1.60;32.90;;;;;;5001986;28;20433;-76
2022/03/06 02:02:59;;;;;;;31.05;16.23;;;1.60;32.60;;;;;;5001515;28;20469;-75
2022/03/06 02:05:25;;;;;;;34.80;17.60;;;1.60;33.00;;;;;;4997906;28;20432;-76
2022/03/06 02:07:51;;;;;;;37.30;18.40;;;1.60;33.30;;;;;;5003540;28;20422;-75
2022/03/06 02:10:17;;;;;;;33.13;17.63;;;1.50;34.30;;;;;;4998144;28;20406;-76
2022/03/06 02:12:43;;;;;;;33.63;17.35;;;1.50;35.30;;;;;;4998260;28;20403;-75
2022/03/06 02:15:11;;;;;;;35.03;18.20;;;1.40;36.10;;;;;;4996816;28;20407;-75
2022/03/06 02:17:38;;;;;;;34.92;18.02;;;1.20;36.70;;;;;;4994729;28;20425;-76
2022/03/06 02:20:09;;;;;;;35.15;18.10;;;1.20;36.90;;;;;;4994530;28;20390;-77
2022/03/06 02:22:37;;;;;;;34.13;17.52;;;1.20;36.90;;;;;;4994301;28;20464;-75
2022/03/06 02:25:10;;;;;;;33.45;16.73;;;1.20;36.00;;;;;;4995397;28;20473;-77
2022/03/06 02:27:36;;;;;;;32.47;16.58;;;1.30;35.10;;;;;;4993952;28;20417;-75
2022/03/06 02:30:11;;;;;;;32.88;16.85;;;1.40;34.30;;;;;;4994901;28;20394;-75
2022/03/06 02:32:39;;;;;;;31.40;16.70;;;1.40;34.60;;;;;;4990458;28;20409;-75
2022/03/06 02:35:06;;;;;;;37.30;17.83;;;1.30;35.30;;;;;;4992278;28;20413;-75
2022/03/06 02:37:32;;;;;;;35.75;16.92;;;1.30;34.80;;;;;;4996796;28;20453;-76
2022/03/06 02:40:03;;;;;;;32.07;17.80;;;1.30;36.30;;;;;;5006455;28;20458;-76
2022/03/06 02:42:31;;;;;;;35.47;18.13;;;1.20;36.40;;;;;;4996848;28;20411;-76
2022/03/06 02:44:58;;;;;;;32.75;16.55;;;1.10;36.50;;;;;;4992339;28;20748;-75
2022/03/06 02:47:24;;;;;;;31.77;16.30;;;1.10;37.50;;;;;;4990735;28;21107;-74
2022/03/06 02:49:50;;;;;;;32.05;16.35;;;0.90;38.90;;;;;;4991248;28;20505;-77
2022/03/06 02:52:16;;;;;;;33.72;17.90;;;0.70;40.00;;;;;;4990951;28;20399;-76
2022/03/06 02:54:41;;;;;;;36.85;17.40;;;0.70;40.00;;;;;;4991383;28;20413;-77
2022/03/06 02:57:08;;;;;;;34.75;17.48;;;0.80;39.20;;;;;;4991313;28;20403;-76
2022/03/06 02:59:33;;;;;;;43.37;18.73;;;0.90;38.40;;;;;;4990058;28;20409;-76
2022/03/06 03:01:59;;;;;;;38.83;17.90;;;0.70;38.60;;;;;;4991459;28;20415;-76
2022/03/06 03:04:25;;;;;;;36.60;16.27;;;0.50;40.30;;;;;;4990614;28;20410;-76
2022/03/06 03:06:52;;;;;;;35.47;16.95;;;0.40;42.20;;;;;;4991357;28;20417;-76
2022/03/06 03:09:20;;;;;;;34.75;17.25;;;0.70;41.70;;;;;;4990839;28;20413;-77
2022/03/06 03:11:52;;;;;;;31.27;16.52;;;0.80;39.80;;;;;;4991646;28;20417;-77
2022/03/06 03:14:18;;;;;;;33.42;16.42;;;0.80;39.30;;;;;;4991276;28;20449;-76
2022/03/06 03:16:44;;;;;;;34.97;17.60;;;0.80;38.50;;;;;;4991631;28;20817;-76
2022/03/06 03:19:10;;;;;;;35.77;17.30;;;0.70;39.40;;;;;;4991078;28;20437;-76
2022/03/06 03:21:35;;;;;;;33.58;16.75;;;0.60;39.80;;;;;;4991543;28;20414;-76
2022/03/06 03:24:02;;;;;;;34.30;17.58;;;0.60;42.50;;;;;;4992389;28;20414;-76
2022/03/06 03:26:28;;;;;;;35.65;17.38;;;0.70;42.40;;;;;;4991806;28;20836;-76
2022/03/06 03:28:53;;;;;;;36.97;16.67;;;0.80;40.40;;;;;;4992923;28;20407;-77
2022/03/06 03:31:19;;;;;;;31.27;15.93;;;0.90;39.20;;;;;;4992497;28;20417;-76
2022/03/06 03:33:45;;;;;;;32.42;17.30;;;0.70;39.80;;;;;;4996419;28;20411;-76
2022/03/06 03:36:10;;;;;;;35.00;17.70;;;0.70;42.40;;;;;;4996873;28;20396;-76
2022/03/06 03:38:36;;;;;;;31.48;16.73;;;0.70;40.40;;;;;;4998056;28;20759;-76
2022/03/06 03:41:02;;;;;;;36.13;17.10;;;0.90;39.40;;;;;;4997201;28;20426;-76
2022/03/06 03:43:28;;;;;;;38.07;17.87;;;0.80;39.40;;;;;;4994191;28;20409;-77
2022/03/06 03:45:54;;;;;;;34.20;17.57;;;0.80;40.80;;;;;;4995013;28;20402;-77
2022/03/06 03:48:19;;;;;;;32.65;18.55;;;0.60;39.90;;;;;;4994139;28;20399;-76
2022/03/06 03:50:45;;;;;;;32.77;18.50;;;0.50;41.30;;;;;;4993332;28;20402;-76
2022/03/06 03:53:11;;;;;;;35.63;19.73;;;0.60;42.10;;;;;;4994471;28;20409;-76
2022/03/06 03:55:36;;;;;;;35.38;18.90;;;0.60;42.50;;;;;;4993189;28;20410;-77
2022/03/06 03:58:02;;;;;;;37.00;18.40;;;0.70;41.50;;;;;;4996926;28;20403;-76
2022/03/06 04:00:28;;;;;;;36.37;18.33;;;0.70;42.40;;;;;;4997459;28;20508;-76
2022/03/06 04:02:53;;;;;;;31.83;17.60;;;0.50;43.20;;;;;;4995170;28;20402;-76
2022/03/06 04:05:19;;;;;;;33.87;16.93;;;0.70;42.30;;;;;;4987283;28;20840;-76
2022/03/06 04:07:44;;;;;;;39.23;17.17;;;0.70;41.40;;;;;;4995313;28;20410;-76
2022/03/06 04:10:11;;;;;;;33.15;17.02;;;0.80;40.80;;;;;;4995116;28;20414;-76
2022/03/06 04:12:36;;;;;;;32.95;17.25;;;1.10;38.10;;;;;;4994930;28;20410;-76
2022/03/06 04:15:02;;;;;;;29.80;16.73;;;1.10;38.30;;;;;;4994186;28;20410;-75
2022/03/06 04:17:28;;;;;;;34.70;17.52;;;0.90;38.60;;;;;;4995250;28;20417;-76
2022/03/06 04:19:53;;;;;;;35.53;18.50;;;0.80;40.10;;;;;;4994572;28;20398;-75
2022/03/06 04:22:19;;;;;;;32.00;18.25;;;0.60;41.70;;;;;;4993385;28;20398;-75
2022/03/06 04:24:45;;;;;;;33.70;17.80;;;0.60;42.30;;;;;;4993551;28;20879;-75
2022/03/06 04:27:10;;;;;;;32.30;17.40;;;0.90;42.40;;;;;;4992099;28;20398;-75
2022/03/06 04:29:36;;;;;;;33.73;17.97;;;1.10;40.50;;;;;;4993369;28;20406;-76
2022/03/06 04:32:03;;;;;;;32.40;17.52;;;0.90;39.50;;;;;;4994325;28;20413;-76
2022/03/06 04:34:28;;;;;;;34.30;17.73;;;0.80;40.60;;;;;;4994149;28;20605;-76
2022/03/06 04:36:54;;;;;;;35.30;18.50;;;0.80;41.80;;;;;;4991109;28;20422;-77
2022/03/06 04:39:20;;;;;;;32.78;17.23;;;0.70;41.00;;;;;;4993538;28;20472;-76
2022/03/06 04:41:45;;;;;;;33.83;18.77;;;0.80;41.30;;;;;;4990699;28;20400;-75
2022/03/06 04:44:13;;;;;;;34.10;17.60;;;0.80;40.30;;;;;;4994302;28;20958;-77
2022/03/06 04:46:38;;;;;;;35.65;17.60;;;0.90;40.80;;;;;;4994903;28;20760;-76
2022/03/06 04:49:04;;;;;;;32.88;17.55;;;1.40;38.70;;;;;;4996039;28;20403;-76
2022/03/06 04:51:30;;;;;;;31.73;16.83;;;1.40;37.20;;;;;;4994119;28;20884;-75
2022/03/06 04:53:55;;;;;;;33.30;18.40;;;1.20;38.30;;;;;;4994647;28;20410;-75
2022/03/06 04:56:21;;;;;;;32.72;17.80;;;1.00;39.10;;;;;;4994440;28;20414;-75
2022/03/06 04:58:47;;;;;;;33.80;18.00;;;1.00;40.70;;;;;;4996167;28;20440;-74
2022/03/06 05:01:12;;;;;;;32.70;17.03;;;0.90;40.00;;;;;;5007702;28;20456;-76
2022/03/06 05:03:38;;;;;;;33.53;18.00;;;0.80;40.10;;;;;;4997041;28;20876;-77
2022/03/06 05:06:03;;;;;;;34.20;17.55;;;1.00;41.10;;;;;;4995814;28;20849;-77
2022/03/06 05:08:29;;;;;;;34.13;17.97;;;1.00;40.90;;;;;;5011737;28;20438;-77
2022/03/06 05:10:55;;;;;;;33.03;17.90;;;1.10;41.00;;;;;;5009068;28;20407;-76
2022/03/06 05:13:22;;;;;;;32.25;17.52;;;0.80;39.80;;;;;;4992127;28;20820;-76
2022/03/06 05:15:47;;;;;;;35.60;17.90;;;0.70;40.40;;;;;;4997000;28;20484;-77
2022/03/06 05:18:13;;;;;;;34.00;18.50;;;0.50;41.90;;;;;;4993829;28;20406;-76
2022/03/06 05:20:39;;;;;;;32.67;17.45;;;0.40;43.90;;;;;;4992646;28;20864;-76
2022/03/06 05:23:04;;;;;;;31.88;16.60;;;0.30;44.40;;;;;;4998173;28;20395;-75
2022/03/06 05:25:30;;;;;;;32.50;17.10;;;0.40;45.40;;;;;;5000960;28;20406;-74
2022/03/06 05:27:56;;;;;;;36.38;17.70;;;0.40;45.90;;;;;;5005316;28;20401;-75
2022/03/06 05:30:22;;;;;;;34.97;17.90;;;0.50;45.30;;;;;;4998148;28;20402;-75
2022/03/06 05:32:48;;;;;;;34.13;17.08;;;0.70;43.60;;;;;;4991911;28;20889;-75
2022/03/06 05:35:13;;;;;;;36.38;17.52;;;0.40;43.20;;;;;;4991852;28;20417;-75
2022/03/06 05:37:39;;;;;;;29.55;17.58;;;0.20;44.30;;;;;;4991584;28;20402;-76
2022/03/06 05:40:07;;;;;;;32.77;17.73;;;0.10;46.20;;;;;;4990677;28;20512;-76
2022/03/06 05:42:32;;;;;;;37.47;17.73;;;0.40;47.10;;;;;;4990507;28;20497;-76
2022/03/06 05:44:58;;;;;;;33.58;18.25;;;0.20;45.90;;;;;;4991338;28;20970;-76
2022/03/06 05:47:24;;;;;;;36.67;18.53;;;0.10;47.10;;;;;;4991119;28;20533;-75
2022/03/06 05:49:49;;;;;;;36.87;18.20;;;-0.10;49.10;;;;;;4991628;28;20449;-75
2022/03/06 05:52:16;;;;;;;35.88;17.17;;;0.40;45.40;;;;;;4991467;28;20399;-75
2022/03/06 05:54:42;;;;;;;36.13;17.88;;;1.00;39.60;;;;;;4991222;28;20399;-74
2022/03/06 05:57:08;;;;;;;40.47;18.05;;;1.00;39.20;;;;;;4989937;28;20400;-73
2022/03/06 05:59:33;;;;;;;34.33;17.53;;;1.00;38.50;;;;;;4987654;28;20506;-74
2022/03/06 06:01:59;;;;;;;33.40;18.33;;;1.00;38.30;;;;;;4991158;28;20418;-73
2022/03/06 06:04:25;;;;;;;36.67;19.38;;;0.80;39.40;;;;;;4991417;28;20453;-76
2022/03/06 06:06:50;;;;;;;37.40;17.77;;;0.70;41.10;;;;;;4990531;28;20899;-76
2022/03/06 06:09:16;;;;;;;37.90;18.57;;;0.80;40.70;;;;;;4990598;28;20403;-75
2022/03/06 06:11:41;;;;;;;37.90;18.60;;;0.80;40.00;;;;;;4987924;28;20410;-76
2022/03/06 06:14:07;;;;;;;40.90;19.60;;;0.80;40.00;;;;;;4991397;28;20486;-75
2022/03/06 06:16:33;;;;;;;41.90;18.60;;;0.80;39.40;;;;;;4989398;28;21044;-75
2022/03/06 06:18:58;;;;;;;41.00;19.83;;;0.70;39.90;;;;;;4991700;28;20410;-75
2022/03/06 06:21:24;;;;;;;43.20;21.08;;;0.80;39.40;;;;;;4991853;28;20399;-76
2022/03/06 06:23:50;;;;;;;44.10;21.85;;;0.70;39.60;;;;;;4990859;28;20485;-75
2022/03/06 06:26:16;;;;;;;45.28;22.90;;;0.70;39.30;;;;;;4992066;28;20502;-76
2022/03/06 06:28:41;;;;;;;44.03;21.43;;;0.70;39.70;;;;;;4991977;28;20402;-75
2022/03/06 06:31:07;;;;;;;44.72;21.63;;;0.80;39.40;;;;;;4993867;28;20405;-76
2022/03/06 06:33:34;;;;;;;43.17;21.77;;;0.90;39.00;;;;;;4993289;28;20410;-76
2022/03/06 06:36:00;;;;;;;48.63;22.75;;;0.80;39.50;;;;;;4996915;28;20424;-76
2022/03/06 06:38:27;;;;;;;46.15;22.30;;;0.90;39.60;;;;;;5000311;28;20453;-75
2022/03/06 06:40:53;;;;;;;48.63;23.70;;;0.80;39.20;;;;;;5007172;28;20410;-75
2022/03/06 06:43:20;;;;;;;46.85;22.75;;;0.80;39.70;;;;;;5001988;28;20904;-75
2022/03/06 06:45:46;;;;;;;44.85;22.70;;;0.70;40.70;;;;;;4996198;28;20673;-75
2022/03/06 06:48:11;;;;;;;50.90;22.60;;;0.70;41.70;;;;;;4997709;28;20425;-74
2022/03/06 06:50:37;;;;;;;43.73;21.90;;;0.80;40.00;;;;;;4997987;28;20402;-76
2022/03/06 06:53:03;;;;;;;46.78;22.88;;;0.90;40.00;;;;;;4994806;28;20934;-74
2022/03/06 06:55:28;;;;;;;47.40;22.45;;;0.90;40.50;;;;;;4992008;28;20457;-76
2022/03/06 06:57:54;;;;;;;44.80;23.23;;;1.00;40.00;;;;;;4986967;28;20454;-76
2022/03/06 07:00:20;;;;;;;47.28;22.65;;;1.00;40.10;;;;;;4990508;28;20409;-76
2022/03/06 07:02:46;;;;;;;45.47;22.77;;;1.00;40.60;;;;;;4990175;28;20766;-75
2022/03/06 07:05:12;;;;;;;48.78;24.33;;;1.00;39.80;;;;;;4991377;28;20406;-75
2022/03/06 07:07:37;;;;;;;46.45;22.95;;;1.10;39.70;;;;;;4991662;28;20417;-74
2022/03/06 07:10:04;;;;;;;50.75;23.55;;;1.10;40.10;;;;;;4990297;28;20410;-77
2022/03/06 07:12:30;;;;;;;46.65;23.35;;;1.00;41.20;;;;;;4991456;28;20409;-75
2022/03/06 07:14:56;;;;;;;47.37;24.10;;;1.10;40.90;;;;;;4995428;28;20406;-77
2022/03/06 07:17:21;;;;;;;51.47;24.30;;;0.90;40.70;;;;;;4996256;28;20601;-76
2022/03/06 07:19:47;;;;;;;46.40;23.15;;;1.10;40.60;;;;;;4996429;28;20465;-77
2022/03/06 07:22:12;;;;;;;48.50;24.87;;;1.20;39.10;;;;;;4995968;28;20401;-76
2022/03/06 07:24:38;;;;;;;47.00;24.70;;;1.30;39.80;;;;;;4994849;28;20421;-76
2022/03/06 07:27:04;;;;;;;46.38;23.13;;;1.30;39.50;;;;;;4995678;28;20401;-77
2022/03/06 07:29:30;;;;;;;46.42;22.05;;;1.50;38.90;;;;;;4998600;28;20442;-75
2022/03/06 07:31:56;;;;;;;50.00;24.90;;;1.50;37.70;;;;;;4999364;28;20489;-73
2022/03/06 07:34:21;;;;;;;47.50;23.80;;;1.50;38.00;;;;;;4999309;28;20442;-75
2022/03/06 07:36:47;;;;;;;48.30;23.20;;;1.40;38.90;;;;;;4996024;28;20508;-75
2022/03/06 07:39:12;;;;;;;42.70;22.90;;;1.60;38.70;;;;;;4998807;28;20410;-75
2022/03/06 07:41:38;;;;;;;41.15;22.17;;;1.90;38.30;;;;;;4998534;28;20406;-74
2022/03/06 07:44:03;;;;;;;49.28;24.13;;;2.20;37.00;;;;;;4995978;28;20968;-74
2022/03/06 07:46:29;;;;;;;43.08;22.70;;;2.50;34.70;;;;;;4995087;28;20415;-73
2022/03/06 07:48:54;;;;;;;44.97;22.37;;;2.60;34.00;;;;;;4995187;28;20493;-73
2022/03/06 07:51:20;;;;;;;47.23;23.43;;;2.70;33.10;;;;;;4996264;28;20410;-74
2022/03/06 07:53:46;;;;;;;42.95;22.40;;;2.90;33.00;;;;;;5000960;28;20412;-75
2022/03/06 07:56:11;;;;;;;51.40;23.48;;;3.00;32.10;;;;;;4993519;28;20423;-74
2022/03/06 07:58:37;;;;;;;51.83;23.80;;;3.10;30.70;;;;;;4992396;28;20907;-73
2022/03/06 08:01:02;;;;;;;45.53;22.93;;;3.10;30.90;;;;;;4997606;28;20402;-72
2022/03/06 08:03:28;;;;;;;44.80;23.33;;;3.20;30.70;;;;;;4999518;28;20440;-74
2022/03/06 08:05:53;;;;;;;50.40;23.98;;;3.30;30.90;;;;;;4998615;28;20469;-74
2022/03/06 08:08:19;;;;;;;47.70;23.98;;;3.50;30.80;;;;;;5002692;28;20409;-76
2022/03/06 08:10:45;;;;;;;46.10;23.20;;;3.60;30.00;;;;;;5005286;28;20418;-76
2022/03/06 08:13:10;;;;;;;44.05;23.05;;;3.60;30.70;;;;;;5006830;28;20442;-76
2022/03/06 08:15:36;;;;;;;42.65;22.60;;;3.70;30.50;;;;;;5002697;28;20561;-76
2022/03/06 08:18:02;;;;;;;45.07;23.13;;;3.70;30.20;;;;;;4988287;28;22012;-76
2022/03/06 08:20:28;;;;;;;47.53;23.65;;;4.00;29.60;;;;;;4994606;28;20403;-76
2022/03/06 08:22:53;;;;;;;43.27;23.23;;;4.20;28.80;;;;;;4997073;28;20406;-76
2022/03/06 08:25:20;;;;;;;49.10;24.53;;;4.20;28.00;;;;;;4994365;28;20434;-78
2022/03/06 08:27:46;;;;;;;48.92;24.50;;;4.30;27.90;;;;;;4992332;28;20406;-76
2022/03/06 08:30:12;;;;;;;42.30;23.15;;;4.30;28.40;;;;;;4993972;28;20922;-76
2022/03/06 08:32:47;;;;;;;42.63;23.80;;;4.50;27.80;;;;;;4994596;28;20406;-74
2022/03/06 08:35:12;;;;;;;43.90;24.08;;;4.60;26.90;;;;;;4992863;28;20469;-75
2022/03/06 08:37:38;;;;;;;41.97;23.83;;;4.70;26.50;;;;;;4993479;28;20585;-76
2022/03/06 08:40:04;;;;;;;43.20;23.37;;;4.60;26.60;;;;;;4992539;28;20868;-75
2022/03/06 08:42:30;;;;;;;41.15;23.40;;;4.90;26.80;;;;;;4986384;28;20485;-75
2022/03/06 08:45:02;;;;;;;43.80;23.00;;;5.10;25.50;;;;;;4992443;28;20438;-74
2022/03/06 08:47:31;;;;;;;44.47;24.10;;;5.00;25.10;;;;;;4988004;28;20602;-73
2022/03/06 08:50:00;;;;;;;35.67;21.50;;;5.00;25.20;;;;;;4992508;28;20398;-75
2022/03/06 08:52:28;;;;;;;46.63;23.10;;;5.10;25.60;;;;;;4993533;28;20445;-74
2022/03/06 08:54:56;;;;;;;43.33;23.73;;;5.40;24.50;;;;;;4990942;28;20410;-77
2022/03/06 08:57:23;;;;;;;40.30;22.53;;;5.50;23.60;;;;;;4988416;28;20565;-75
2022/03/06 08:59:49;;;;;;;42.83;21.67;;;5.60;24.40;;;;;;4989398;28;20402;-75
2022/03/06 09:02:15;;;;;;;36.63;20.52;;;5.60;22.50;;;;;;4990781;28;20438;-76
2022/03/06 09:04:40;;;;;;;39.80;21.23;;;5.40;22.00;;;;;;4993407;28;20437;-77
2022/03/06 09:07:08;;;;;;;42.90;22.83;;;5.20;22.80;;;;;;4992655;28;20905;-75
2022/03/06 09:09:36;;;;;;;42.50;22.52;;;5.10;23.20;;;;;;4991481;28;20516;-75
2022/03/06 09:12:02;;;;;;;39.53;21.88;;;5.10;23.30;;;;;;4992251;28;20409;-76
2022/03/06 09:14:28;;;;;;;39.17;21.60;;;5.10;24.10;;;;;;4988893;28;20414;-75
2022/03/06 09:16:53;;;;;;;38.58;21.63;;;5.20;24.00;;;;;;4989723;28;20413;-75
2022/03/06 09:19:19;;;;;;;37.67;20.33;;;5.20;22.90;;;;;;4987606;28;20406;-76
2022/03/06 09:21:46;;;;;;;39.43;21.40;;;5.20;22.80;;;;;;4988691;28;20840;-77
2022/03/06 09:24:12;;;;;;;38.03;20.08;;;5.50;22.60;;;;;;4993104;28;20409;-76
2022/03/06 09:26:38;;;;;;;40.22;21.50;;;5.70;21.30;;;;;;4993058;28;20748;-79
2022/03/06 09:29:05;;;;;;;36.05;19.65;;;5.80;21.80;;;;;;4993225;28;20410;-76
2022/03/06 09:31:31;;;;;;;36.70;20.90;;;5.90;21.00;;;;;;4991932;28;20408;-77
2022/03/06 09:33:56;;;;;;;37.42;21.30;;;5.70;21.10;;;;;;4994878;28;20401;-75
2022/03/06 09:36:22;;;;;;;40.42;22.42;;;5.50;21.40;;;;;;4994581;28;20468;-76
2022/03/06 09:38:48;;;;;;;42.57;22.13;;;5.40;22.00;;;;;;4989233;28;20417;-76
2022/03/06 09:41:16;;;;;;;34.00;19.60;;;5.40;22.20;;;;;;4990765;28;20441;-77
2022/03/06 09:43:42;;;;;;;42.17;20.75;;;5.40;21.60;;;;;;4990949;28;20896;-77
2022/03/06 09:46:08;;;;;;;39.60;20.83;;;5.50;23.20;;;;;;4988801;28;20413;-76
2022/03/06 09:48:36;;;;;;;38.70;22.20;;;5.60;22.80;;;;;;4988192;28;20502;-75
2022/03/06 09:51:04;;;;;;;47.15;25.17;;;5.60;22.20;;;;;;4990847;28;20410;-76
2022/03/06 09:53:31;;;;;;;41.85;22.65;;;5.50;22.50;;;;;;4990109;28;21176;-76
2022/03/06 09:55:57;;;;;;;42.57;25.23;;;5.50;22.00;;;;;;4991930;28;20441;-76
2022/03/06 09:58:24;;;;;;;49.60;28.67;;;5.50;22.40;;;;;;4988840;28;20876;-76
2022/03/06 10:00:50;;;;;;;47.42;25.98;;;5.50;23.00;;;;;;4990024;28;20391;-76
2022/03/06 10:03:20;;;;;;;45.22;26.08;;;5.70;22.20;;;;;;4992526;28;20405;-75
2022/03/06 10:05:46;;;;;;;50.45;27.15;;;5.90;22.00;;;;;;4987418;28;20410;-77
2022/03/06 10:08:16;;;;;;;49.28;28.45;;;5.90;21.20;;;;;;4991510;28;20417;-78
2022/03/06 10:10:42;;;;;;;49.50;26.83;;;5.90;21.60;;;;;;4992510;28;20406;-76
2022/03/06 10:13:21;;;;;;;50.13;28.23;;;6.10;22.20;;;;;;4996359;28;20409;-77
2022/03/06 10:16:08;;;;;;;46.35;27.30;;;6.20;20.40;;;;;;4991107;28;20427;-78
2022/03/06 10:18:40;;;;;;;42.60;24.13;;;6.40;19.90;;;;;;4992876;28;20476;-76
2022/03/06 10:21:09;;;;;;;42.55;22.90;;;6.50;19.50;;;;;;4990945;28;20394;-77
2022/03/06 10:23:35;;;;;;;44.08;25.45;;;6.40;19.40;;;;;;4995056;28;20399;-76
2022/03/06 10:26:06;;;;;;;38.83;21.88;;;6.50;20.30;;;;;;4990941;28;20413;-76
2022/03/06 10:28:50;;;;;;;39.88;22.65;;;6.70;18.30;;;;;;4988853;28;20411;-77
2022/03/06 10:31:17;;;;;;;37.83;21.80;;;6.60;19.30;;;;;;4982349;28;20497;-77
2022/03/06 10:34:01;;;;;;;39.22;21.33;;;6.60;18.60;;;;;;4988295;28;20405;-76
2022/03/06 10:36:47;;;;;;;36.90;21.42;;;6.70;18.60;;;;;;4990882;28;20443;-78
2022/03/06 10:39:14;;;;;;;34.97;20.05;;;6.70;19.10;;;;;;4992384;28;20390;-78
2022/03/06 10:41:42;;;;;;;38.20;20.08;;;6.60;17.60;;;;;;4994511;28;20903;-78
2022/03/06 10:44:10;;;;;;;35.85;19.58;;;6.50;18.70;;;;;;4995722;28;20421;-77
2022/03/06 10:46:37;;;;;;;32.92;18.63;;;6.60;18.50;;;;;;4999503;28;20415;-78
2022/03/06 10:49:14;;;;;;;34.55;19.58;;;6.70;17.80;;;;;;5001610;28;20402;-75
2022/03/06 10:51:44;;;;;;;31.95;19.13;;;6.70;17.40;;;;;;4994087;28;20796;-76
2022/03/06 10:54:11;;;;;;;29.50;17.60;;;6.80;18.10;;;;;;4995166;28;20480;-77
2022/03/06 10:56:37;;;;;;;31.33;17.70;;;6.90;16.50;;;;;;5000876;28;20414;-77
2022/03/06 10:59:05;;;;;;;29.88;18.35;;;7.00;16.00;;;;;;5000866;28;20904;-77
2022/03/06 11:01:32;;;;;;;31.10;18.10;;;7.00;17.00;;;;;;5001317;28;20414;-77
2022/03/06 11:04:00;;;;;;;29.17;16.13;;;7.10;16.60;;;;;;5004333;28;20401;-77
2022/03/06 11:06:27;;;;;;;31.33;17.20;;;7.30;15.60;;;;;;5004179;28;20402;-77
2022/03/06 11:08:56;;;;;;;29.25;16.90;;;7.30;14.90;;;;;;5001641;28;20449;-76
2022/03/06 11:11:22;;;;;;;26.25;16.30;;;7.30;14.30;;;;;;5006232;28;20427;-78
2022/03/06 11:13:48;;;;;;;29.05;16.60;;;7.20;14.70;;;;;;5004544;28;20418;-79
2022/03/06 11:16:15;;;;;;;28.95;16.50;;;7.30;15.40;;;;;;4996063;28;20501;-77
2022/03/06 11:18:41;;;;;;;26.55;15.85;;;7.40;15.00;;;;;;4995345;28;20409;-77
2022/03/06 11:21:07;;;;;;;24.55;15.77;;;7.40;13.50;;;;;;4995122;28;20405;-77
2022/03/06 11:23:51;;;;;;;25.25;15.25;;;7.50;15.70;;;;;;4993836;28;20445;-76
2022/03/06 11:26:34;;;;;;;32.88;15.07;;;7.50;13.40;;;;;;4989691;28;20518;-76
2022/03/06 11:29:22;;;;;;;23.85;14.70;;;7.50;13.20;;;;;;4993327;28;20409;-78
2022/03/06 11:31:53;;;;;;;25.30;13.32;;;7.30;13.70;;;;;;5007028;28;20478;-77
2022/03/06 11:34:30;;;;;;;22.20;13.27;;;7.50;11.30;;;;;;4997538;28;20410;-74
2022/03/06 11:36:57;;;;;;;21.00;13.02;;;7.50;11.70;;;;;;4995913;28;20477;-77
2022/03/06 11:39:28;;;;;;;19.63;12.93;;;7.70;10.50;;;;;;4998392;28;20834;-75
2022/03/06 11:41:55;;;;;;;22.40;14.20;;;7.70;9.70;;;;;;4996980;28;20408;-76
2022/03/06 11:44:38;;;;;;;21.63;13.57;;;7.70;10.70;;;;;;4993827;28;20476;-76
2022/03/06 11:47:35;;;;;;;22.85;13.88;;;7.90;10.90;;;;;;4997841;28;20411;-77
2022/03/06 11:50:00;;;;;;;21.25;13.70;;;8.10;10.70;;;;;;5002273;28;20407;-76
2022/03/06 11:52:27;;;;;;;24.43;15.30;;;8.10;10.00;;;;;;5004285;28;20489;-77
2022/03/06 11:54:53;;;;;;;23.90;15.70;;;8.10;10.60;;;;;;5000167;28;20792;-75
2022/03/06 11:57:39;;;;;;;23.40;14.10;;;8.00;10.70;;;;;;4996494;28;20468;-75
2022/03/06 12:00:18;;;;;;;20.80;12.77;;;8.30;10.10;;;;;;5001525;28;20426;-76
2022/03/06 12:02:53;;;;;;;20.33;11.57;;;8.20;9.00;;;;;;4996688;28;20410;-76
2022/03/06 12:05:42;;;;;;;20.27;12.90;;;7.90;8.40;;;;;;5000438;28;20402;-78
2022/03/06 12:08:11;;;;;;;21.13;12.90;;;7.80;9.10;;;;;;4998390;28;20424;-78
2022/03/06 12:10:38;;;;;;;19.05;12.15;;;7.80;9.80;;;;;;5011155;28;20478;-76
2022/03/06 12:13:04;;;;;;;21.15;13.60;;;7.90;9.50;;;;;;4995854;28;20414;-77
2022/03/06 12:15:29;;;;;;;22.73;13.80;;;7.90;9.80;;;;;;4994321;28;20514;-78
2022/03/06 12:18:05;;;;;;;20.80;12.77;;;7.90;8.60;;;;;;4993597;28;20398;-76
2022/03/06 12:20:41;;;;;;;20.63;12.88;;;7.90;9.00;;;;;;4993465;28;20410;-78
2022/03/06 12:23:23;;;;;;;21.85;14.18;;;8.10;9.40;;;;;;4993300;28;20410;-77
2022/03/06 12:25:55;;;;;;;22.48;13.57;;;8.10;9.60;;;;;;4989300;28;20406;-77
2022/03/06 12:28:24;;;;;;;19.90;11.73;;;8.30;10.10;;;;;;4991043;28;20467;-77
2022/03/06 12:30:50;;;;;;;20.02;13.18;;;8.00;8.30;;;;;;4994178;28;20493;-77
2022/03/06 12:33:34;;;;;;;20.42;12.43;;;7.80;9.20;;;;;;4991065;28;20402;-79
2022/03/06 12:36:16;;;;;;;21.10;13.60;;;7.90;8.90;;;;;;4993437;28;20414;-74
2022/03/06 12:38:42;;;;;;;26.40;15.73;;;7.90;9.50;;;;;;4993731;28;20444;-77